WA4BPS Weather Reports


Display with metric or nautical units.
time (UTC)temp
F
wind
direction
speed
MPH
gust
MPH
rain 1hr
in
rain 24hr
in
rain mn
in
humidity
%
barometer
mb
20260504175326 75 320 6.0 14.0 0.00 0.00 0.00 45 1011.7
20260504175224 75 313 5.0 14.0 0.00 0.00 0.00 45 1011.7
20260504175122 75 298 8.0 14.0 0.00 0.00 0.00 44 1011.7
20260504175029 75 315 8.0 16.0 0.00 0.00 0.00 44 1011.7
20260504174928 75 329 7.0 17.0 0.00 0.00 0.00 44 1011.7
20260504174826 75 304 5.0 17.0 0.00 0.00 0.00 44 1011.7
20260504174736 75 318 2.0 17.0 0.00 0.00 0.00 45 1011.7
20260504174645 75 295 6.0 17.0 0.00 0.00 0.00 44 1011.7
20260504174524 75 304 5.0 17.0 0.00 0.00 0.00 46 1011.7
20260504174443 75 288 6.0 17.0 0.00 0.00 0.00 46 1011.7
20260504174324 75 298 8.0 17.0 0.00 0.00 0.00 46 1012.0
20260504174243 75 328 8.0 17.0 0.00 0.00 0.00 47 1012.0
20260504174142 75 316 10.0 17.0 0.00 0.00 0.00 46 1012.0
20260504174040 75 329 8.0 17.0 0.00 0.00 0.00 45 1012.0
20260504173938 75 312 6.0 17.0 0.00 0.00 0.00 44 1012.0
20260504173837 75 304 6.0 14.0 0.00 0.00 0.00 47 1012.0
20260504173756 75 333 4.0 14.0 0.00 0.00 0.00 47 1012.0
20260504173639 75 315 5.0 14.0 0.00 0.00 0.00 46 1012.0
20260504173541 75 298 5.0 14.0 0.00 0.00 0.00 46 1012.0
20260504173439 75 329 5.0 14.0 0.00 0.00 0.00 47 1012.0
20260504173335 74 325 7.0 17.0 0.00 0.00 0.00 48 1012.0
20260504173254 74 316 6.0 17.0 0.00 0.00 0.00 47 1012.0
20260504173203 74 322 7.0 17.0 0.00 0.00 0.00 47 1012.0
20260504173038 74 292 8.0 17.0 0.00 0.00 0.00 45 1012.0
20260504172958 74 329 3.0 17.0 0.00 0.00 0.00 47 1012.0
20260504172834 74 253 2.0 17.0 0.00 0.00 0.00 47 1012.2
20260504172758 74 329 4.0 17.0 0.00 0.00 0.00 46 1012.2
20260504172638 74 326 6.0 17.0 0.00 0.00 0.00 47 1012.2
20260504172538 74 285 11.0 17.0 0.00 0.00 0.00 47 1012.2
20260504172457 74 325 11.0 17.0 0.00 0.00 0.00 47 1012.2
20260504172335 74 319 5.0 13.0 0.00 0.00 0.00 47 1012.2
20260504172232 74 301 3.0 13.0 0.00 0.00 0.00 46 1012.2
20260504172131 74 329 2.0 14.0 0.00 0.00 0.00 45 1012.2
20260504172032 74 311 3.0 14.0 0.00 0.00 0.00 46 1012.2
20260504171930 74 319 5.0 14.0 0.00 0.00 0.00 46 1012.2
20260504171829 74 330 4.0 14.0 0.00 0.00 0.00 45 1012.2
20260504171739 74 319 8.0 14.0 0.00 0.00 0.00 45 1012.2
20260504171652 74 312 6.0 14.0 0.00 0.00 0.00 46 1012.2
20260504171529 74 328 5.0 14.0 0.00 0.00 0.00 46 1012.2
20260504171426 74 296 8.0 14.0 0.00 0.00 0.00 46 1012.2
20260504171329 74 328 8.0 14.0 0.00 0.00 0.00 46 1012.4
20260504171247 74 325 5.0 12.0 0.00 0.00 0.00 46 1012.4
20260504171125 74 291 4.0 12.0 0.00 0.00 0.00 46 1012.4
20260504171043 74 291 6.0 12.0 0.00 0.00 0.00 46 1012.4
20260504170941 74 280 5.0 14.0 0.00 0.00 0.00 47 1012.4
20260504170839 74 326 6.0 14.0 0.00 0.00 0.00 46 1012.4
20260504170737 74 318 4.0 14.0 0.00 0.00 0.00 47 1012.4
20260504170636 74 309 6.0 14.0 0.00 0.00 0.00 46 1012.4
20260504170554 74 318 4.0 14.0 0.00 0.00 0.00 45 1012.4
20260504170436 74 304 4.0 14.0 0.00 0.00 0.00 46 1012.4
20260504170333 74 319 6.0 14.0 0.00 0.00 0.00 47 1012.4
20260504170242 74 328 5.0 14.0 0.00 0.00 0.00 47 1012.4
20260504170153 74 323 7.0 14.0 0.00 0.00 0.00 46 1012.4
20260504160332 70 257 7.0 16.0 0.00 0.00 0.00 50 1013.2
20260504160240 70 302 8.0 16.0 0.00 0.00 0.00 50 1013.2
20260504160151 70 304 6.0 16.0 0.00 0.00 0.00 50 1013.2
20260504151141 65 313 10.0 20.0 0.00 0.00 0.00 55 1013.7
20260504151041 65 281 8.0 20.0 0.00 0.00 0.00 54 1013.7
20260504150959 65 295 6.0 20.0 0.00 0.00 0.00 55 1013.7
20260504150836 65 288 7.0 20.0 0.00 0.00 0.00 55 1013.7
20260504150737 65 271 9.0 20.0 0.00 0.00 0.00 54 1013.7
20260504150634 65 315 12.0 20.0 0.00 0.00 0.00 54 1013.7
20260504150532 65 298 9.0 20.0 0.00 0.00 0.00 55 1013.7
20260504150430 65 305 8.0 20.0 0.00 0.00 0.00 55 1013.7
20260504150327 65 285 10.0 20.0 0.00 0.00 0.00 55 1013.7
20260504150256 64 313 11.0 20.0 0.00 0.00 0.00 54 1013.7
20260504150146 64 294 13.0 20.0 0.00 0.00 0.00 55 1013.7
20260504141303 62 298 11.0 19.0 0.00 0.00 0.00 56 1013.4
20260504141141 61 254 9.0 18.0 0.00 0.00 0.00 56 1013.4
20260504141039 61 277 11.0 18.0 0.00 0.00 0.00 56 1013.4
20260504140941 61 304 11.0 17.0 0.00 0.00 0.00 56 1013.4
20260504140838 61 302 10.0 17.0 0.00 0.00 0.00 56 1013.4
20260504140736 61 274 9.0 17.0 0.00 0.00 0.00 56 1013.4
20260504140634 61 302 9.0 18.0 0.00 0.00 0.00 56 1013.4
20260504140533 61 323 7.0 21.0 0.00 0.00 0.00 56 1013.4
20260504140432 61 305 8.0 21.0 0.00 0.00 0.00 56 1013.4
20260504140332 61 289 9.0 21.0 0.00 0.00 0.00 56 1013.4
20260504140234 61 281 8.0 21.0 0.00 0.00 0.00 56 1013.4
20260504140202 61 282 8.0 21.0 0.00 0.00 0.00 56 1013.4
20260504130759 59 322 12.0 24.0 0.00 0.00 0.00 54 1013.1
20260504130637 59 294 13.0 24.0 0.00 0.00 0.00 54 1013.1
20260504130555 59 319 12.0 24.0 0.00 0.00 0.00 54 1013.1
20260504130433 59 267 10.0 24.0 0.00 0.00 0.00 54 1013.1
20260504130330 59 232 6.0 24.0 0.00 0.00 0.00 55 1013.1
20260504130259 59 270 15.0 25.0 0.00 0.00 0.00 55 1013.1
20260504130152 59 268 12.0 25.0 0.00 0.00 0.00 54 1013.1
20260504120241 57 309 14.0 24.0 0.00 0.00 0.00 56 1012.6
20260504120150 57 292 15.0 24.0 0.00 0.00 0.00 56 1012.6
20260504110639 57 301 14.0 25.0 0.00 0.00 0.00 54 1013.1
20260504110541 57 312 14.0 25.0 0.00 0.00 0.00 54 1013.1
20260504110439 57 301 13.0 25.0 0.00 0.00 0.00 54 1013.1
20260504110337 57 315 14.0 25.0 0.00 0.00 0.00 55 1013.1
20260504110239 57 330 11.0 25.0 0.00 0.00 0.00 55 1013.1
20260504110209 57 267 13.0 25.0 0.00 0.00 0.00 55 1013.1
20260504100530 57 274 13.0 26.0 0.00 0.00 0.00 55 1011.9
20260504100329 57 299 19.0 26.0 0.00 0.00 0.00 55 1011.9
20260504100239 57 272 11.0 24.0 0.00 0.00 0.00 55 1011.9
20260504100149 57 288 11.0 24.0 0.00 0.00 0.00 54 1011.9
20260504081931 57 281 8.0 25.0 0.00 0.00 0.00 52 1012.0
20260504081831 57 274 15.0 25.0 0.00 0.00 0.00 52 1012.0
20260504081739 57 261 9.0 25.0 0.00 0.00 0.00 52 1012.0
20260504081647 57 294 12.0 25.0 0.00 0.00 0.00 52 1012.0
20260504081525 57 308 12.0 25.0 0.00 0.00 0.00 52 1012.0
20260504081444 57 308 11.0 25.0 0.00 0.00 0.00 52 1012.0
20260504081406 57 267 14.0 25.0 0.00 0.00 0.00 52 1012.1
20260504081304 57 313 14.0 25.0 0.00 0.00 0.00 52 1012.1
20260504081142 57 268 12.0 24.0 0.00 0.00 0.00 52 1012.1
20260504081040 57 260 8.0 24.0 0.00 0.00 0.00 52 1012.1
20260504080938 57 332 8.0 24.0 0.00 0.00 0.00 52 1012.1
20260504080856 57 274 9.0 24.0 0.00 0.00 0.00 52 1012.1
20260504080732 57 294 9.0 24.0 0.00 0.00 0.00 52 1012.1
20260504080630 57 312 14.0 24.0 0.00 0.00 0.00 52 1012.1
20260504080531 57 288 11.0 24.0 0.00 0.00 0.00 51 1012.1
20260504080431 57 251 15.0 24.0 0.00 0.00 0.00 51 1012.1
20260504080328 57 315 10.0 24.0 0.00 0.00 0.00 52 1012.1
20260504080227 57 304 12.0 24.0 0.00 0.00 0.00 51 1012.1
20260504070355 57 287 11.0 19.0 0.00 0.00 0.00 52 1013.2
20260504070232 57 289 10.0 19.0 0.00 0.00 0.00 51 1013.2
20260504070203 57 268 10.0 19.0 0.00 0.00 0.00 52 1013.2
20260504060226 57 294 7.0 17.0 0.00 0.00 0.00 52 1013.0
20260504050738 57 325 6.0 16.0 0.00 0.00 0.00 51 1013.5
20260504050636 57 275 8.0 16.0 0.00 0.00 0.00 51 1013.5
20260504050553 57 288 6.0 16.0 0.00 0.00 0.00 52 1013.5
20260504050434 57 306 6.0 16.0 0.00 0.00 0.00 51 1013.5
20260504050335 57 247 7.0 16.0 0.00 0.00 0.00 52 1013.5
20260504050235 57 312 9.0 16.0 0.00 0.00 0.00 52 1013.5
20260504050205 57 199 9.0 16.0 0.00 0.00 0.00 52 1013.5
20260504045938 57 285 7.0 16.0 0.00 0.00 0.00 51 1013.5
20260504045836 57 295 6.0 16.0 0.00 0.00 0.00 51 1013.5
20260504045743 57 294 9.0 17.0 0.00 0.00 0.00 51 1013.5
20260504045641 57 296 10.0 17.0 0.00 0.00 0.00 50 1013.5
20260504045540 57 332 8.0 17.0 0.00 0.00 0.00 51 1013.5
20260504045436 57 319 9.0 17.0 0.00 0.00 0.00 51 1013.5
20260504045333 57 301 8.0 17.0 0.00 0.00 0.00 51 1013.5
20260504045231 57 271 7.0 17.0 0.00 0.00 0.00 51 1013.5
20260504045150 57 274 8.0 17.0 0.00 0.00 0.00 50 1013.5
20260504045051 57 287 10.0 17.0 0.00 0.00 0.00 51 1013.5
20260504044949 57 298 9.0 17.0 0.00 0.00 0.00 51 1013.5
20260504044830 57 305 8.0 14.0 0.00 0.00 0.00 52 1013.5
20260504044730 57 304 7.0 16.0 0.00 0.00 0.00 52 1013.5
20260504044701 57 229 7.0 16.0 0.00 0.00 0.00 52 1013.5
20260504044539 57 277 7.0 16.0 0.00 0.00 0.00 52 1013.5
20260504044437 57 329 7.0 16.0 0.00 0.00 0.00 52 1013.5
20260504044338 57 291 6.0 16.0 0.00 0.00 0.00 51 1013.5
20260504044237 57 277 5.0 16.0 0.00 0.00 0.00 51 1013.5
20260504044138 57 312 7.0 16.0 0.00 0.00 0.00 51 1013.5
20260504044057 57 271 8.0 16.0 0.00 0.00 0.00 51 1013.5
20260504043934 57 256 9.0 16.0 0.00 0.00 0.00 52 1013.5
20260504043856 57 291 7.0 16.0 0.00 0.00 0.00 51 1013.5
20260504043753 57 298 7.0 14.0 0.00 0.00 0.00 51 1013.5
20260504043630 57 236 7.0 14.0 0.00 0.00 0.00 51 1013.5
20260504043527 57 295 8.0 16.0 0.00 0.00 0.00 51 1013.5
20260504043426 57 281 7.0 16.0 0.00 0.00 0.00 51 1013.5
20260504043330 57 261 7.0 16.0 0.00 0.00 0.00 52 1013.5
20260504043241 57 261 7.0 16.0 0.00 0.00 0.00 51 1013.5
20260504043151 57 284 7.0 16.0 0.00 0.00 0.00 51 1013.5
20260504043027 57 281 6.0 16.0 0.00 0.00 0.00 51 1013.5
20260504042925 57 305 8.0 16.0 0.00 0.00 0.00 52 1013.5
20260504042843 57 248 8.0 16.0 0.00 0.00 0.00 51 1013.4
20260504042741 57 274 8.0 16.0 0.00 0.00 0.00 51 1013.4
20260504042639 57 294 8.0 14.0 0.00 0.00 0.00 51 1013.4
20260504042542 57 315 7.0 14.0 0.00 0.00 0.00 52 1013.4
20260504042441 57 281 8.0 14.0 0.00 0.00 0.00 52 1013.4
20260504042338 57 289 8.0 14.0 0.00 0.00 0.00 52 1013.4
20260504042237 57 287 7.0 18.0 0.00 0.00 0.00 52 1013.4
20260504042157 57 306 6.0 18.0 0.00 0.00 0.00 52 1013.4
20260504042033 57 304 6.0 18.0 0.00 0.00 0.00 52 1013.4
20260504041932 57 250 7.0 18.0 0.00 0.00 0.00 52 1013.4
20260504041835 57 294 6.0 18.0 0.00 0.00 0.00 52 1013.4
20260504041734 57 280 8.0 18.0 0.00 0.00 0.00 52 1013.4
20260504041703 57 253 6.0 18.0 0.00 0.00 0.00 51 1013.4
20260504041542 57 285 9.0 18.0 0.00 0.00 0.00 52 1013.4
20260504041442 57 296 11.0 18.0 0.00 0.00 0.00 52 1013.4
20260504041340 57 285 8.0 18.0 0.00 0.00 0.00 53 1013.6
20260504041240 57 309 6.0 18.0 0.00 0.00 0.00 53 1013.6
20260504041139 57 301 9.0 18.0 0.00 0.00 0.00 53 1013.6
20260504041041 57 258 8.0 18.0 0.00 0.00 0.00 53 1013.6
20260504040938 57 263 7.0 17.0 0.00 0.00 0.00 53 1013.6
20260504040837 57 291 9.0 17.0 0.00 0.00 0.00 53 1013.6
20260504040736 57 302 8.0 17.0 0.00 0.00 0.00 53 1013.6
20260504040634 57 261 9.0 17.0 0.00 0.00 0.00 53 1013.6
20260504040531 57 260 7.0 17.0 0.00 0.00 0.00 53 1013.6
20260504040449 57 271 11.0 17.0 0.00 0.00 0.00 53 1013.6
20260504040331 57 282 10.0 18.0 0.00 0.00 0.00 53 1013.6
20260504040241 57 257 9.0 18.0 0.00 0.00 0.00 53 1013.6
20260504040151 57 278 8.0 18.0 0.00 0.00 0.00 53 1013.6
20260504040029 56 254 8.0 18.0 0.00 0.00 0.00 53 1013.6
20260504035947 56 278 11.0 18.0 0.00 0.00 0.00 53 1013.6
20260504035844 56 315 10.0 18.0 0.00 0.00 0.00 53 1013.8
20260504035803 56 294 10.0 18.0 0.00 0.00 0.00 54 1013.8
20260504035639 56 335 10.0 18.0 0.00 0.00 0.00 54 1013.8
20260504035557 56 256 11.0 18.0 0.00 0.00 0.00 53 1013.8
20260504035454 56 281 11.0 18.0 0.00 0.00 0.00 54 1013.8
20260504035336 56 285 11.0 18.0 0.00 0.00 0.00 54 1013.8
20260504035235 56 282 8.0 18.0 0.00 0.00 0.00 54 1013.8
20260504035132 56 285 11.0 17.0 0.00 0.00 0.00 54 1013.8
20260504035052 56 285 10.0 17.0 0.00 0.00 0.00 54 1013.8
20260504034929 56 298 10.0 20.0 0.00 0.00 0.00 54 1013.8
20260504034826 56 311 11.0 20.0 0.00 0.00 0.00 54 1013.8
20260504034725 56 292 11.0 20.0 0.00 0.00 0.00 54 1013.8
20260504034659 56 306 11.0 20.0 0.00 0.00 0.00 54 1013.8
20260504034536 56 302 10.0 20.0 0.00 0.00 0.00 54 1013.8
20260504034435 56 254 10.0 20.0 0.00 0.00 0.00 54 1013.8
20260504034333 56 287 8.0 20.0 0.00 0.00 0.00 54 1013.9
20260504034232 56 251 9.0 20.0 0.00 0.00 0.00 54 1013.9
20260504034130 56 311 11.0 20.0 0.00 0.00 0.00 55 1013.9
20260504034029 56 295 8.0 17.0 0.00 0.00 0.00 54 1013.9
20260504033931 56 287 9.0 18.0 0.00 0.00 0.00 54 1013.9
20260504033854 56 288 11.0 18.0 0.00 0.00 0.00 54 1013.9
20260504033751 56 278 10.0 18.0 0.00 0.00 0.00 55 1013.9
20260504033629 56 280 8.0 18.0 0.00 0.00 0.00 55 1013.9
20260504033527 56 284 11.0 18.0 0.00 0.00 0.00 55 1013.9
20260504033427 56 251 6.0 18.0 0.00 0.00 0.00 55 1013.9
20260504033326 56 288 6.0 18.0 0.00 0.00 0.00 55 1013.9
20260504033239 56 272 6.0 18.0 0.00 0.00 0.00 55 1013.9
20260504033149 56 294 12.0 18.0 0.00 0.00 0.00 55 1013.9
20260504033025 56 304 9.0 14.0 0.00 0.00 0.00 54 1013.9
20260504032925 56 292 10.0 14.0 0.00 0.00 0.00 54 1013.9
20260504032843 56 292 9.0 16.0 0.00 0.00 0.00 54 1014.4
20260504032741 56 289 10.0 16.0 0.00 0.00 0.00 55 1014.4
20260504032640 56 265 9.0 16.0 0.00 0.00 0.00 55 1014.4
20260504032538 56 277 7.0 16.0 0.00 0.00 0.00 54 1014.4
20260504032501 56 254 8.0 16.0 0.00 0.00 0.00 54 1014.4
20260504032337 56 322 8.0 16.0 0.00 0.00 0.00 54 1014.4
20260504032235 55 272 8.0 16.0 0.00 0.00 0.00 55 1014.4
20260504032133 55 281 8.0 16.0 0.00 0.00 0.00 54 1014.4
20260504032054 55 281 9.0 16.0 0.00 0.00 0.00 54 1014.4
20260504031933 55 302 7.0 16.0 0.00 0.00 0.00 54 1014.4
20260504031831 55 328 10.0 16.0 0.00 0.00 0.00 54 1014.4
20260504031743 55 288 5.0 16.0 0.00 0.00 0.00 54 1014.4
20260504031652 55 320 8.0 16.0 0.00 0.00 0.00 54 1014.4
20260504031530 55 298 8.0 16.0 0.00 0.00 0.00 54 1014.4
20260504031428 55 301 8.0 14.0 0.00 0.00 0.00 55 1014.4
20260504031326 55 261 6.0 14.0 0.00 0.00 0.00 54 1014.7
20260504031229 55 315 5.0 14.0 0.00 0.00 0.00 54 1014.7
20260504031128 55 280 6.0 14.0 0.00 0.00 0.00 55 1014.7
20260504031030 55 296 6.0 14.0 0.00 0.00 0.00 55 1014.7
20260504030929 55 299 10.0 14.0 0.00 0.00 0.00 55 1014.7
20260504030849 55 318 10.0 14.0 0.00 0.00 0.00 54 1014.7
20260504030727 55 306 6.0 14.0 0.00 0.00 0.00 54 1014.7
20260504030625 55 260 10.0 14.0 0.00 0.00 0.00 55 1014.7
20260504030523 55 316 6.0 14.0 0.00 0.00 0.00 55 1014.7
20260504030443 55 315 8.0 14.0 0.00 0.00 0.00 55 1014.7
20260504030325 55 257 8.0 14.0 0.00 0.00 0.00 55 1014.7
20260504030236 55 309 6.0 14.0 0.00 0.00 0.00 55 1014.7
20260504030147 55 313 10.0 14.0 0.00 0.00 0.00 55 1014.7
20260504030023 55 287 6.0 12.0 0.00 0.00 0.00 55 1014.7
20260504025925 55 226 7.0 12.0 0.00 0.00 0.00 54 1014.7
20260504025843 55 274 8.0 12.0 0.00 0.00 0.00 54 1014.7
20260504025741 55 318 8.0 12.0 0.00 0.00 0.00 55 1014.7
20260504025639 55 284 8.0 12.0 0.00 0.00 0.00 55 1014.7
20260504025601 55 268 6.0 12.0 0.00 0.00 0.00 55 1014.7
20260504025439 55 247 6.0 12.0 0.00 0.00 0.00 55 1014.7
20260504025337 55 315 6.0 9.0 0.00 0.00 0.00 56 1014.7
20260504025235 55 294 5.0 9.0 0.00 0.00 0.00 56 1014.7
20260504025134 55 305 6.0 9.0 0.00 0.00 0.00 56 1014.7
20260504025032 55 323 5.0 9.0 0.00 0.00 0.00 56 1014.7
20260504024930 55 260 7.0 9.0 0.00 0.00 0.00 56 1014.7
20260504024833 55 315 7.0 9.0 0.00 0.00 0.00 56 1014.7
20260504024752 55 287 6.0 9.0 0.00 0.00 0.00 56 1014.7
20260504024702 55 301 5.0 9.0 0.00 0.00 0.00 56 1014.7
20260504024540 55 243 6.0 9.0 0.00 0.00 0.00 56 1014.7
20260504024439 55 288 5.0 9.0 0.00 0.00 0.00 56 1014.7
20260504024338 55 315 6.0 9.0 0.00 0.00 0.00 56 1014.7
20260504024236 55 298 6.0 9.0 0.00 0.00 0.00 56 1014.7
20260504024139 55 301 6.0 9.0 0.00 0.00 0.00 56 1014.7
20260504024038 55 329 6.0 9.0 0.00 0.00 0.00 56 1014.7
20260504023938 55 268 4.0 8.0 0.00 0.00 0.00 56 1014.7
20260504023836 55 260 6.0 8.0 0.00 0.00 0.00 56 1014.7
20260504023735 55 280 6.0 8.0 0.00 0.00 0.00 56 1014.7
20260504023652 55 265 5.0 8.0 0.00 0.00 0.00 55 1014.7
20260504023530 55 326 5.0 8.0 0.00 0.00 0.00 56 1014.7
20260504023433 55 304 6.0 8.0 0.00 0.00 0.00 56 1014.7
20260504023331 55 312 6.0 8.0 0.00 0.00 0.00 56 1014.7
20260504023242 55 329 4.0 8.0 0.00 0.00 0.00 56 1014.7
20260504023152 55 332 6.0 8.0 0.00 0.00 0.00 56 1014.7
20260504023027 55 285 5.0 8.0 0.00 0.00 0.00 56 1014.7
20260504022926 55 306 4.0 8.0 0.00 0.00 0.00 56 1014.7
20260504022824 55 319 4.0 8.0 0.00 0.00 0.00 56 1014.6
20260504022730 55 294 5.0 8.0 0.00 0.00 0.00 56 1014.6
20260504022649 55 267 4.0 8.0 0.00 0.00 0.00 56 1014.6
20260504022546 55 330 4.0 8.0 0.00 0.00 0.00 56 1014.6
20260504022443 55 243 4.0 8.0 0.00 0.00 0.00 56 1014.6
20260504022341 55 332 6.0 8.0 0.00 0.00 0.00 56 1014.6
20260504022239 55 323 5.0 8.0 0.00 0.00 0.00 58 1014.6
20260504022137 55 325 5.0 8.0 0.00 0.00 0.00 59 1014.6
20260504022056 55 328 5.0 8.0 0.00 0.00 0.00 58 1014.6
20260504021932 55 288 5.0 8.0 0.00 0.00 0.00 58 1014.6
20260504021835 55 237 4.0 8.0 0.00 0.00 0.00 59 1014.6
20260504021734 55 263 6.0 8.0 0.00 0.00 0.00 59 1014.6
20260504021703 55 302 4.0 8.0 0.00 0.00 0.00 59 1014.6
20260504021542 55 332 3.0 7.0 0.00 0.00 0.00 59 1014.6
20260504021502 55 260 3.0 7.0 0.00 0.00 0.00 59 1014.6
20260504021339 55 251 4.0 7.0 0.00 0.00 0.00 59 1014.5
20260504021257 55 332 5.0 8.0 0.00 0.00 0.00 59 1014.5
20260504021134 55 330 4.0 8.0 0.00 0.00 0.00 59 1014.5
20260504021057 55 326 3.0 8.0 0.00 0.00 0.00 59 1014.5
20260504020954 55 330 5.0 8.0 0.00 0.00 0.00 59 1014.5
20260504020830 55 333 4.0 8.0 0.00 0.00 0.00 59 1014.5
20260504020729 55 261 5.0 8.0 0.00 0.00 0.00 59 1014.5
20260504020629 55 322 4.0 8.0 0.00 0.00 0.00 60 1014.5
20260504020547 55 330 5.0 8.0 0.00 0.00 0.00 59 1014.5
20260504020504 55 263 5.0 8.0 0.00 0.00 0.00 59 1014.5
20260504020342 55 254 5.0 7.0 0.00 0.00 0.00 59 1014.5
20260504020225 55 332 3.0 7.0 0.00 0.00 0.00 59 1014.5
20260504020155 55 258 2.0 6.0 0.00 0.00 0.00 59 1014.5
20260504020032 55 329 2.0 6.0 0.00 0.00 0.00 58 1014.5
20260504015949 55 306 3.0 6.0 0.00 0.00 0.00 57 1014.5
20260504015828 55 330 4.0 6.0 0.00 0.00 0.00 56 1014.3
20260504015725 55 319 3.0 6.0 0.00 0.00 0.00 56 1014.3
20260504015624 55 330 3.0 6.0 0.00 0.00 0.00 56 1014.3
20260504015526 55 329 3.0 6.0 0.00 0.00 0.00 56 1014.3
20260504015445 55 270 3.0 6.0 0.00 0.00 0.00 55 1014.3
20260504015404 55 332 2.0 6.0 0.00 0.00 0.00 55 1014.3
20260504015301 55 315 1.0 6.0 0.00 0.00 0.00 56 1014.3
20260504015138 55 332 2.0 7.0 0.00 0.00 0.00 57 1014.3
20260504015036 55 332 2.0 7.0 0.00 0.00 0.00 57 1014.3
20260504014954 55 330 2.0 7.0 0.00 0.00 0.00 57 1014.3
20260504014832 55 308 4.0 7.0 0.00 0.00 0.00 57 1014.3
20260504014730 55 265 3.0 7.0 0.00 0.00 0.00 58 1014.3
20260504014704 55 333 4.0 7.0 0.00 0.00 0.00 57 1014.3
20260504014542 55 309 4.0 7.0 0.00 0.00 0.00 59 1014.3
20260504014500 55 256 4.0 7.0 0.00 0.00 0.00 59 1014.3
20260504014358 55 329 5.0 7.0 0.00 0.00 0.00 59 1014.1
20260504014236 55 284 3.0 7.0 0.00 0.00 0.00 59 1014.1
20260504014133 55 244 2.0 7.0 0.00 0.00 0.00 59 1014.1
20260504014052 55 299 4.0 7.0 0.00 0.00 0.00 58 1014.1
20260504013929 55 270 4.0 7.0 0.00 0.00 0.00 58 1014.1
20260504013830 55 320 5.0 7.0 0.00 0.00 0.00 57 1014.1
20260504013730 55 294 4.0 7.0 0.00 0.00 0.00 57 1014.1
20260504013628 55 330 3.0 7.0 0.00 0.00 0.00 57 1014.1
20260504013525 55 261 3.0 7.0 0.00 0.00 0.00 56 1014.1
20260504013424 55 296 4.0 7.0 0.00 0.00 0.00 56 1014.1
20260504013343 55 332 4.0 7.0 0.00 0.00 0.00 56 1014.1
20260504013231 55 330 2.0 7.0 0.00 0.00 0.00 56 1014.1
20260504013146 55 332 2.0 7.0 0.00 0.00 0.00 56 1014.1
20260504013025 55 326 5.0 7.0 0.00 0.00 0.00 56 1014.1
20260504012924 55 333 3.0 6.0 0.00 0.00 0.00 56 1014.1
20260504012824 55 326 3.0 6.0 0.00 0.00 0.00 56 1013.9
20260504012726 56 329 1.0 6.0 0.00 0.00 0.00 57 1013.9
20260504012626 56 280 3.0 6.0 0.00 0.00 0.00 57 1013.9
20260504012544 56 316 4.0 6.0 0.00 0.00 0.00 58 1013.9
20260504012426 56 333 4.0 6.0 0.00 0.00 0.00 58 1013.9
20260504012344 56 337 4.0 6.0 0.00 0.00 0.00 57 1013.9
20260504012305 56 333 4.0 7.0 0.00 0.00 0.00 57 1013.9
20260504012142 56 337 4.0 7.0 0.00 0.00 0.00 57 1013.9
20260504012100 56 322 4.0 7.0 0.00 0.00 0.00 56 1013.9
20260504011937 56 315 3.0 7.0 0.00 0.00 0.00 56 1013.9
20260504011856 56 333 4.0 7.0 0.00 0.00 0.00 56 1013.9
20260504011732 56 330 5.0 8.0 0.00 0.00 0.00 56 1013.9
20260504011703 56 311 5.0 8.0 0.00 0.00 0.00 56 1013.9
20260504011604 56 333 4.0 8.0 0.00 0.00 0.00 56 1013.9
20260504011442 56 332 4.0 8.0 0.00 0.00 0.00 56 1013.9
20260504011342 56 301 4.0 8.0 0.00 0.00 0.00 56 1013.2
20260504011241 56 320 3.0 8.0 0.00 0.00 0.00 55 1013.2
20260504011139 56 330 4.0 8.0 0.00 0.00 0.00 56 1013.2
20260504011038 56 329 3.0 8.0 0.00 0.00 0.00 56 1013.2
20260504010936 56 320 4.0 8.0 0.00 0.00 0.00 56 1013.2
20260504010838 57 333 4.0 8.0 0.00 0.00 0.00 54 1013.2
20260504010736 57 329 4.0 6.0 0.00 0.00 0.00 54 1013.2
20260504010634 57 332 3.0 6.0 0.00 0.00 0.00 54 1013.2
20260504010532 57 326 3.0 6.0 0.00 0.00 0.00 53 1013.2
20260504010430 57 333 3.0 6.0 0.00 0.00 0.00 53 1013.2
20260504010330 57 329 2.0 5.0 0.00 0.00 0.00 53 1013.2
20260504010228 57 325 1.0 5.0 0.00 0.00 0.00 54 1013.2
20260504010202 57 332 2.0 5.0 0.00 0.00 0.00 54 1013.2
20260504010039 57 332 2.0 5.0 0.00 0.00 0.00 53 1013.2
20260504005937 57 333 3.0 5.0 0.00 0.00 0.00 53 1013.2
20260504005835 57 326 2.0 4.0 0.00 0.00 0.00 51 1014.0
20260504005733 57 304 3.0 4.0 0.00 0.00 0.00 50 1014.0
20260504005630 57 333 2.0 4.0 0.00 0.00 0.00 51 1014.0
20260504005529 57 330 2.0 3.0 0.00 0.00 0.00 50 1014.0
20260504005431 58 333 2.0 3.0 0.00 0.00 0.00 50 1014.0
20260504005351 58 330 2.0 3.0 0.00 0.00 0.00 50 1014.0
20260504005250 58 333 3.0 3.0 0.00 0.00 0.00 50 1014.0
20260504005127 58 335 1.0 3.0 0.00 0.00 0.00 50 1014.0
20260504005025 58 318 0.0 3.0 0.00 0.00 0.00 50 1014.0
20260504004943 58 332 0.0 3.0 0.00 0.00 0.00 50 1014.0
20260504004843 58 325 1.0 3.0 0.00 0.00 0.00 51 1014.0
20260504004725 58 329 2.0 5.0 0.00 0.00 0.00 51 1014.0
20260504004655 58 325 1.0 6.0 0.00 0.00 0.00 51 1014.0
20260504004532 58 330 1.0 6.0 0.00 0.00 0.00 50 1014.0
20260504004430 58 328 0.0 6.0 0.00 0.00 0.00 50 1014.0
20260504004330 58 325 0.0 6.0 0.00 0.00 0.00 49 1013.9
20260504004228 58 323 1.0 6.0 0.00 0.00 0.00 49 1013.9
20260504004126 58 332 0.0 6.0 0.00 0.00 0.00 49 1013.9
20260504004029 58 309 0.0 6.0 0.00 0.00 0.00 48 1013.9
20260504003927 58 330 1.0 6.0 0.00 0.00 0.00 48 1013.9
20260504003826 59 323 1.0 6.0 0.00 0.00 0.00 48 1013.9
20260504003727 59 318 1.0 3.0 0.00 0.00 0.00 48 1013.9
20260504003625 59 319 1.0 3.0 0.00 0.00 0.00 47 1013.9
20260504003544 59 318 1.0 3.0 0.00 0.00 0.00 47 1013.9
20260504003441 59 323 1.0 3.0 0.00 0.00 0.00 47 1013.9
20260504003345 59 330 1.0 3.0 0.00 0.00 0.00 47 1013.9
20260504003243 59 320 1.0 3.0 0.00 0.00 0.00 46 1013.9
20260504003214 59 313 1.0 3.0 0.00 0.00 0.00 46 1013.9
20260504003028 59 332 1.0 3.0 0.00 0.00 0.00 47 1013.9
20260504002927 59 329 0.0 3.0 0.00 0.00 0.00 46 1013.9
20260504002825 59 312 0.0 6.0 0.00 0.00 0.00 47 1013.9
20260504002743 59 316 1.0 6.0 0.00 0.00 0.00 46 1013.9
20260504002642 59 330 2.0 8.0 0.00 0.00 0.00 46 1013.9
20260504002601 59 332 2.0 8.0 0.00 0.00 0.00 47 1013.9
20260504002437 59 332 1.0 8.0 0.00 0.00 0.00 47 1013.9
20260504002339 60 329 1.0 8.0 0.00 0.00 0.00 47 1013.9
20260504002237 60 330 1.0 8.0 0.00 0.00 0.00 47 1013.9
20260504002136 60 332 2.0 8.0 0.00 0.00 0.00 46 1013.9
20260504002054 60 329 2.0 8.0 0.00 0.00 0.00 46 1013.9
20260504001932 60 328 0.0 8.0 0.00 0.00 0.00 46 1013.9
20260504001829 60 325 3.0 8.0 0.00 0.00 0.00 46 1013.9
20260504001737 60 322 4.0 8.0 0.00 0.00 0.00 46 1013.9
20260504001647 60 318 3.0 11.0 0.00 0.00 0.00 46 1013.9
20260504001548 60 330 3.0 11.0 0.00 0.00 0.00 46 1013.9
20260504001425 60 322 3.0 11.0 0.00 0.00 0.00 45 1013.9
20260504001344 60 333 5.0 11.0 0.00 0.00 0.00 45 1014.1
20260504001303 60 319 4.0 11.0 0.00 0.00 0.00 45 1014.1
20260504001139 60 316 3.0 11.0 0.00 0.00 0.00 46 1014.1
20260504001038 60 328 2.0 11.0 0.00 0.00 0.00 46 1014.1
20260504000936 60 326 3.0 11.0 0.00 0.00 0.00 46 1014.1
20260504000834 60 320 4.0 11.0 0.00 0.00 0.00 46 1014.1
20260504000736 60 312 4.0 9.0 0.00 0.00 0.00 46 1014.1
20260504000635 60 318 4.0 7.0 0.00 0.00 0.00 45 1014.1
20260504000533 60 318 4.0 6.0 0.00 0.00 0.00 45 1014.1
20260504000431 60 312 2.0 6.0 0.00 0.00 0.00 45 1014.1
20260504000329 60 326 3.0 6.0 0.00 0.00 0.00 44 1014.1
20260504000241 60 320 2.0 6.0 0.00 0.00 0.00 44 1014.1
20260504000151 60 325 2.0 10.0 0.00 0.00 0.00 44 1014.1
20260504000031 60 323 1.0 10.0 0.00 0.00 0.00 44 1014.1
20260503235949 60 325 1.0 10.0 0.00 0.00 0.00 44 1014.1
20260503235827 60 332 4.0 10.0 0.00 0.00 0.00 44 1014.2
20260503235726 60 326 3.0 10.0 0.00 0.00 0.00 44 1014.2
20260503235645 60 332 2.0 12.0 0.00 0.00 0.00 44 1014.2
20260503235604 60 315 2.0 12.0 0.00 0.00 0.00 43 1014.2
20260503235441 60 325 3.0 12.0 0.00 0.00 0.00 42 1014.2
20260503235326 60 313 5.0 12.0 0.00 0.00 0.00 41 1014.2
20260503235223 60 332 3.0 12.0 0.00 0.00 0.00 41 1014.2
20260503235142 61 318 3.0 12.0 0.00 0.00 0.00 41 1014.2
20260503235040 61 323 3.0 12.0 0.00 0.00 0.00 42 1014.2
20260503234939 61 322 1.0 12.0 0.00 0.00 0.00 42 1014.2
20260503234836 61 319 5.0 12.0 0.00 0.00 0.00 42 1014.2
20260503234734 61 322 8.0 10.0 0.00 0.00 0.00 44 1014.2
20260503234704 61 322 7.0 10.0 0.00 0.00 0.00 44 1014.2
20260503234602 61 325 3.0 12.0 0.00 0.00 0.00 45 1014.2
20260503234441 61 322 2.0 12.0 0.00 0.00 0.00 45 1014.2
20260503234339 61 289 2.0 12.0 0.00 0.00 0.00 45 1014.2
20260503234238 61 322 1.0 12.0 0.00 0.00 0.00 45 1014.2
20260503234136 61 301 3.0 12.0 0.00 0.00 0.00 46 1014.2
20260503234034 61 320 4.0 12.0 0.00 0.00 0.00 45 1014.2
20260503233932 61 311 3.0 12.0 0.00 0.00 0.00 46 1014.2
20260503233831 61 316 3.0 12.0 0.00 0.00 0.00 45 1014.2
20260503233753 61 319 6.0 12.0 0.00 0.00 0.00 44 1014.2
20260503233631 61 326 6.0 12.0 0.00 0.00 0.00 45 1014.2
20260503233529 61 330 4.0 12.0 0.00 0.00 0.00 46 1014.2
20260503233427 61 333 5.0 12.0 0.00 0.00 0.00 45 1014.2
20260503233326 61 328 2.0 9.0 0.00 0.00 0.00 46 1014.2
20260503233225 61 313 3.0 9.0 0.00 0.00 0.00 46 1014.2
20260503233157 61 323 4.0 9.0 0.00 0.00 0.00 46 1014.2
20260503233038 61 320 7.0 10.0 0.00 0.00 0.00 46 1014.2
20260503232936 61 329 5.0 10.0 0.00 0.00 0.00 46 1014.2
20260503232835 61 328 4.0 10.0 0.00 0.00 0.00 45 1014.3
20260503232732 61 332 5.0 10.0 0.00 0.00 0.00 45 1014.3
20260503232630 61 320 5.0 10.0 0.00 0.00 0.00 45 1014.3
20260503232528 61 326 1.0 10.0 0.00 0.00 0.00 44 1014.3
20260503232427 61 309 1.0 10.0 0.00 0.00 0.00 44 1014.3
20260503232329 61 277 2.0 10.0 0.00 0.00 0.00 44 1014.3
20260503232227 61 312 5.0 10.0 0.00 0.00 0.00 44 1014.3
20260503232126 61 299 3.0 9.0 0.00 0.00 0.00 43 1014.3
20260503232025 61 315 4.0 12.0 0.00 0.00 0.00 44 1014.3
20260503231925 61 320 5.0 12.0 0.00 0.00 0.00 44 1014.3
20260503231842 61 306 5.0 12.0 0.00 0.00 0.00 44 1014.3
20260503231736 61 315 5.0 12.0 0.00 0.00 0.00 44 1014.3
20260503231645 61 316 2.0 12.0 0.00 0.00 0.00 43 1014.3
20260503231524 61 308 5.0 12.0 0.00 0.00 0.00 43 1014.3
20260503231443 61 304 3.0 12.0 0.00 0.00 0.00 43 1014.3
20260503231340 61 296 1.0 12.0 0.00 0.00 0.00 43 1014.3
20260503231238 61 332 6.0 12.0 0.00 0.00 0.00 42 1014.3
20260503231137 61 322 4.0 10.0 0.00 0.00 0.00 43 1014.3
20260503231057 61 306 6.0 10.0 0.00 0.00 0.00 42 1014.3
20260503230955 61 298 5.0 10.0 0.00 0.00 0.00 41 1014.3
20260503230836 61 329 5.0 10.0 0.00 0.00 0.00 43 1014.3
20260503230754 61 319 7.0 10.0 0.00 0.00 0.00 42 1014.3
20260503230631 61 322 5.0 10.0 0.00 0.00 0.00 42 1014.3
20260503230531 61 323 5.0 10.0 0.00 0.00 0.00 42 1014.3
20260503230430 62 315 3.0 10.0 0.00 0.00 0.00 42 1014.3
20260503230349 62 318 5.0 10.0 0.00 0.00 0.00 41 1014.3
20260503230225 62 319 2.0 10.0 0.00 0.00 0.00 42 1014.3
20260503230158 62 322 2.0 13.0 0.00 0.00 0.00 42 1014.3
20260503230041 62 326 3.0 13.0 0.00 0.00 0.00 42 1014.3
20260503225939 62 304 1.0 13.0 0.00 0.00 0.00 43 1014.3
20260503225837 62 316 4.0 13.0 0.00 0.00 0.00 43 1014.3
20260503225736 62 285 4.0 13.0 0.00 0.00 0.00 43 1014.3
20260503225634 62 277 3.0 13.0 0.00 0.00 0.00 42 1014.3
20260503225533 62 295 5.0 13.0 0.00 0.00 0.00 42 1014.3
20260503225435 62 289 6.0 13.0 0.00 0.00 0.00 43 1014.3
20260503225333 62 315 9.0 13.0 0.00 0.00 0.00 45 1014.3
20260503225233 62 322 7.0 12.0 0.00 0.00 0.00 44 1014.3
20260503225131 62 306 7.0 13.0 0.00 0.00 0.00 44 1014.3
20260503225050 62 316 7.0 13.0 0.00 0.00 0.00 42 1014.3
20260503224927 62 318 1.0 13.0 0.00 0.00 0.00 41 1014.3
20260503224846 62 315 2.0 13.0 0.00 0.00 0.00 41 1014.3
20260503224735 62 319 4.0 13.0 0.00 0.00 0.00 41 1014.3
20260503224648 62 319 6.0 13.0 0.00 0.00 0.00 42 1014.3
20260503224545 62 320 3.0 13.0 0.00 0.00 0.00 41 1014.3
20260503224504 62 315 5.0 13.0 0.00 0.00 0.00 40 1014.3
20260503224342 62 326 8.0 13.0 0.00 0.00 0.00 40 1014.4
20260503224242 62 316 7.0 13.0 0.00 0.00 0.00 40 1014.4
20260503224139 62 320 6.0 13.0 0.00 0.00 0.00 40 1014.4
20260503224058 62 322 5.0 13.0 0.00 0.00 0.00 40 1014.4
20260503223935 62 323 4.0 13.0 0.00 0.00 0.00 39 1014.4
20260503223840 62 315 6.0 13.0 0.00 0.00 0.00 39 1014.4
20260503223758 62 319 5.0 13.0 0.00 0.00 0.00 42 1014.4
20260503223636 62 301 5.0 13.0 0.00 0.00 0.00 42 1014.4
20260503223554 62 333 7.0 13.0 0.00 0.00 0.00 42 1014.4
20260503223431 62 316 5.0 12.0 0.00 0.00 0.00 42 1014.4
20260503223328 62 326 5.0 12.0 0.00 0.00 0.00 41 1014.4
20260503223238 62 305 4.0 12.0 0.00 0.00 0.00 41 1014.4
20260503223149 62 287 4.0 12.0 0.00 0.00 0.00 41 1014.4
20260503223031 62 322 3.0 12.0 0.00 0.00 0.00 40 1014.4
20260503222929 62 323 3.0 12.0 0.00 0.00 0.00 42 1014.4
20260503222827 62 305 5.0 12.0 0.00 0.00 0.00 42 1014.5
20260503222725 62 328 3.0 12.0 0.00 0.00 0.00 41 1014.5
20260503222624 62 296 5.0 12.0 0.00 0.00 0.00 41 1014.5
20260503222542 62 315 1.0 10.0 0.00 0.00 0.00 41 1014.5
20260503222439 62 325 3.0 10.0 0.00 0.00 0.00 41 1014.5
20260503222341 62 322 4.0 10.0 0.00 0.00 0.00 41 1014.5
20260503222240 62 287 4.0 10.0 0.00 0.00 0.00 41 1014.5
20260503222137 62 284 0.0 10.0 0.00 0.00 0.00 40 1014.5
20260503222057 62 323 2.0 10.0 0.00 0.00 0.00 42 1014.5
20260503221934 62 326 5.0 10.0 0.00 0.00 0.00 42 1014.5
20260503221852 62 326 6.0 10.0 0.00 0.00 0.00 43 1014.5
20260503221733 62 288 7.0 10.0 0.00 0.00 0.00 41 1014.5
20260503221704 62 329 6.0 10.0 0.00 0.00 0.00 42 1014.5
20260503221546 62 309 3.0 10.0 0.00 0.00 0.00 41 1014.5
20260503221444 62 304 1.0 11.0 0.00 0.00 0.00 41 1014.5
20260503221343 62 328 1.0 11.0 0.00 0.00 0.00 41 1014.7
20260503221241 62 328 3.0 11.0 0.00 0.00 0.00 41 1014.7
20260503221140 62 318 5.0 11.0 0.00 0.00 0.00 41 1014.7
20260503221038 62 322 3.0 11.0 0.00 0.00 0.00 42 1014.7
20260503220936 62 323 3.0 11.0 0.00 0.00 0.00 42 1014.7
20260503220839 62 316 6.0 11.0 0.00 0.00 0.00 42 1014.7
20260503220758 62 319 5.0 11.0 0.00 0.00 0.00 41 1014.7
20260503220635 62 330 4.0 12.0 0.00 0.00 0.00 39 1014.7
20260503220534 62 316 4.0 13.0 0.00 0.00 0.00 40 1014.7
20260503220452 62 318 5.0 14.0 0.00 0.00 0.00 41 1014.7
20260503220351 62 332 6.0 14.0 0.00 0.00 0.00 41 1014.7
20260503220240 62 301 6.0 14.0 0.00 0.00 0.00 41 1014.7
20260503220152 62 330 5.0 14.0 0.00 0.00 0.00 41 1014.7
20260503220028 62 325 3.0 14.0 0.00 0.00 0.00 39 1014.7
20260503215931 62 318 6.0 14.0 0.00 0.00 0.00 39 1014.7
20260503215829 62 319 6.0 14.0 0.00 0.00 0.00 39 1014.8
20260503215728 62 312 8.0 14.0 0.00 0.00 0.00 40 1014.8
20260503215647 62 311 8.0 14.0 0.00 0.00 0.00 40 1014.8
20260503215544 62 329 7.0 14.0 0.00 0.00 0.00 42 1014.8
20260503215443 62 289 5.0 14.0 0.00 0.00 0.00 44 1014.8
20260503215342 62 322 6.0 14.0 0.00 0.00 0.00 43 1014.8
20260503215243 62 325 4.0 14.0 0.00 0.00 0.00 42 1014.8
20260503215142 62 319 1.0 14.0 0.00 0.00 0.00 41 1014.8
20260503215100 62 316 3.0 14.0 0.00 0.00 0.00 40 1014.8
20260503214937 62 298 4.0 14.0 0.00 0.00 0.00 42 1014.8
20260503214855 62 330 3.0 14.0 0.00 0.00 0.00 41 1014.8
20260503214734 62 332 5.0 14.0 0.00 0.00 0.00 40 1014.8
20260503214704 62 308 2.0 14.0 0.00 0.00 0.00 40 1014.8
20260503214601 62 330 2.0 14.0 0.00 0.00 0.00 40 1014.8
20260503214423 62 330 5.0 14.0 0.00 0.00 0.00 40 1014.8
20260503214324 62 328 6.0 14.0 0.00 0.00 0.00 39 1015.0
20260503214243 62 329 6.0 14.0 0.00 0.00 0.00 38 1015.0
20260503214141 62 320 3.0 12.0 0.00 0.00 0.00 40 1015.0
20260503214039 62 320 1.0 12.0 0.00 0.00 0.00 40 1015.0
20260503213939 62 311 2.0 12.0 0.00 0.00 0.00 40 1015.0
20260503213837 62 305 6.0 13.0 0.00 0.00 0.00 40 1015.0
20260503213736 62 318 6.0 13.0 0.00 0.00 0.00 41 1015.0
20260503213638 62 313 5.0 13.0 0.00 0.00 0.00 40 1015.0
20260503213557 62 320 2.0 13.0 0.00 0.00 0.00 38 1015.0
20260503213434 62 311 2.0 13.0 0.00 0.00 0.00 38 1015.0
20260503213331 62 325 5.0 13.0 0.00 0.00 0.00 40 1015.0
20260503213242 62 318 5.0 13.0 0.00 0.00 0.00 40 1015.0
20260503213152 62 332 6.0 13.0 0.00 0.00 0.00 41 1015.0
20260503213028 62 325 8.0 13.0 0.00 0.00 0.00 39 1015.0
20260503212931 62 333 9.0 13.0 0.00 0.00 0.00 41 1015.0
20260503212849 62 309 7.0 13.0 0.00 0.00 0.00 42 1015.2
20260503212744 62 316 5.0 13.0 0.00 0.00 0.00 41 1015.2
20260503212703 62 288 7.0 13.0 0.00 0.00 0.00 41 1015.2
20260503212542 62 318 6.0 13.0 0.00 0.00 0.00 40 1015.2
20260503212440 62 319 2.0 13.0 0.00 0.00 0.00 40 1015.2
20260503212338 62 328 2.0 13.0 0.00 0.00 0.00 41 1015.2
20260503212257 62 326 5.0 13.0 0.00 0.00 0.00 41 1015.2
20260503212134 62 318 4.0 13.0 0.00 0.00 0.00 41 1015.2
20260503212036 62 322 3.0 13.0 0.00 0.00 0.00 40 1015.2
20260503211934 62 322 5.0 13.0 0.00 0.00 0.00 39 1015.2
20260503211832 62 328 5.0 13.0 0.00 0.00 0.00 41 1015.2
20260503211742 62 329 8.0 13.0 0.00 0.00 0.00 42 1015.2
20260503211650 61 304 8.0 17.0 0.00 0.00 0.00 41 1015.2
20260503211528 61 323 5.0 17.0 0.00 0.00 0.00 41 1015.2
20260503211427 61 332 2.0 17.0 0.00 0.00 0.00 40 1015.2
20260503211329 61 330 2.0 17.0 0.00 0.00 0.00 39 1015.1
20260503211228 61 301 4.0 17.0 0.00 0.00 0.00 40 1015.1
20260503211126 62 318 8.0 17.0 0.00 0.00 0.00 39 1015.1
20260503211045 62 320 7.0 17.0 0.00 0.00 0.00 39 1015.1
20260503211004 62 328 6.0 17.0 0.00 0.00 0.00 40 1015.1
20260503210841 62 332 10.0 17.0 0.00 0.00 0.00 39 1015.1
20260503210739 62 318 11.0 17.0 0.00 0.00 0.00 41 1015.1
20260503210641 62 328 6.0 11.0 0.00 0.00 0.00 40 1015.1
20260503210539 62 294 5.0 14.0 0.00 0.00 0.00 40 1015.1
20260503210458 62 323 4.0 14.0 0.00 0.00 0.00 41 1015.1
20260503210416 62 312 4.0 14.0 0.00 0.00 0.00 40 1015.1
20260503210314 62 319 1.0 14.0 0.00 0.00 0.00 38 1015.1
20260503210224 62 308 1.0 14.0 0.00 0.00 0.00 38 1015.1
20260503210040 62 304 4.0 14.0 0.00 0.00 0.00 41 1015.1
20260503205940 62 323 2.0 14.0 0.00 0.00 0.00 44 1015.1
20260503205838 62 326 5.0 14.0 0.00 0.00 0.00 43 1015.3
20260503205741 62 325 8.0 14.0 0.00 0.00 0.00 42 1015.3
20260503205640 62 322 7.0 12.0 0.00 0.00 0.00 42 1015.3
20260503205538 62 318 6.0 11.0 0.00 0.00 0.00 41 1015.3
20260503205436 62 285 5.0 11.0 0.00 0.00 0.00 40 1015.3
20260503205335 62 326 3.0 11.0 0.00 0.00 0.00 40 1015.3
20260503205233 62 329 1.0 11.0 0.00 0.00 0.00 39 1015.3
20260503205136 62 328 6.0 11.0 0.00 0.00 0.00 40 1015.3
20260503205033 62 313 3.0 11.0 0.00 0.00 0.00 41 1015.3
20260503204932 62 316 5.0 11.0 0.00 0.00 0.00 41 1015.3
20260503204831 62 335 7.0 11.0 0.00 0.00 0.00 44 1015.3
20260503204743 62 311 4.0 8.0 0.00 0.00 0.00 44 1015.3
20260503204652 62 295 3.0 8.0 0.00 0.00 0.00 44 1015.3
20260503204551 62 336 2.0 8.0 0.00 0.00 0.00 43 1015.3
20260503204428 62 326 3.0 11.0 0.00 0.00 0.00 44 1015.3
20260503204351 62 332 7.0 17.0 0.00 0.00 0.00 43 1015.5
20260503204228 62 322 5.0 17.0 0.00 0.00 0.00 42 1015.5
20260503204127 62 330 1.0 17.0 0.00 0.00 0.00 42 1015.5
20260503204046 62 305 6.0 17.0 0.00 0.00 0.00 41 1015.5
20260503203943 62 329 3.0 17.0 0.00 0.00 0.00 42 1015.5
20260503203841 62 308 2.0 17.0 0.00 0.00 0.00 41 1015.5
20260503203740 62 287 4.0 17.0 0.00 0.00 0.00 41 1015.5
20260503203638 62 305 7.0 17.0 0.00 0.00 0.00 44 1015.5
20260503203540 62 305 9.0 17.0 0.00 0.00 0.00 43 1015.5
20260503203438 62 277 8.0 17.0 0.00 0.00 0.00 41 1015.5
20260503203339 62 318 5.0 16.0 0.00 0.00 0.00 41 1015.5
20260503203259 62 332 4.0 16.0 0.00 0.00 0.00 41 1015.5
20260503203229 62 323 4.0 16.0 0.00 0.00 0.00 43 1015.5
20260503203105 62 322 6.0 16.0 0.00 0.00 0.00 41 1015.5
20260503202942 62 311 5.0 16.0 0.00 0.00 0.00 44 1015.5
20260503202841 62 319 7.0 16.0 0.00 0.00 0.00 44 1015.9
20260503202802 62 296 4.0 16.0 0.00 0.00 0.00 42 1015.9
20260503202621 62 306 6.0 16.0 0.00 0.00 0.00 41 1015.9
20260503202543 62 309 4.0 16.0 0.00 0.00 0.00 43 1015.9
20260503202501 62 318 4.0 11.0 0.00 0.00 0.00 41 1015.9
20260503202337 62 299 3.0 11.0 0.00 0.00 0.00 41 1015.9
20260503202235 62 320 3.0 12.0 0.00 0.00 0.00 41 1015.9
20260503202134 62 335 7.0 12.0 0.00 0.00 0.00 41 1015.9
20260503202032 62 332 5.0 12.0 0.00 0.00 0.00 41 1015.9
20260503201935 62 318 8.0 12.0 0.00 0.00 0.00 44 1015.9
20260503201833 62 305 7.0 12.0 0.00 0.00 0.00 43 1015.9
20260503201752 62 302 6.0 12.0 0.00 0.00 0.00 44 1015.9
20260503201722 62 318 4.0 12.0 0.00 0.00 0.00 45 1015.9
20260503201542 61 322 3.0 12.0 0.00 0.00 0.00 46 1015.9
20260503201441 61 325 8.0 12.0 0.00 0.00 0.00 45 1015.9
20260503201400 61 330 7.0 12.0 0.00 0.00 0.00 44 1016.1
20260503201237 61 288 2.0 11.0 0.00 0.00 0.00 43 1016.1
20260503201138 61 312 1.0 15.0 0.00 0.00 0.00 42 1016.1
20260503201040 61 330 2.0 15.0 0.00 0.00 0.00 42 1016.1
20260503200938 61 318 0.0 15.0 0.00 0.00 0.00 43 1016.1
20260503200835 61 291 2.0 15.0 0.00 0.00 0.00 46 1016.1
20260503200733 61 322 3.0 15.0 0.00 0.00 0.00 46 1016.1
20260503200632 61 315 3.0 15.0 0.00 0.00 0.00 44 1016.1
20260503200531 61 315 1.0 15.0 0.00 0.00 0.00 47 1016.1
20260503200433 61 339 2.0 15.0 0.00 0.00 0.00 44 1016.1
20260503200331 61 326 7.0 15.0 0.00 0.00 0.00 46 1016.1
20260503200229 61 311 7.0 14.0 0.00 0.00 0.00 44 1016.1
20260503200159 61 318 3.0 11.0 0.00 0.00 0.00 44 1016.1
20260503200036 61 329 4.0 13.0 0.00 0.00 0.00 44 1016.1
20260503195934 61 318 3.0 13.0 0.00 0.00 0.00 43 1016.1
20260503195833 61 328 2.0 13.0 0.00 0.00 0.00 42 1016.3
20260503195754 61 323 3.0 13.0 0.00 0.00 0.00 41 1016.3
20260503195631 61 333 9.0 13.0 0.00 0.00 0.00 44 1016.3
20260503195549 61 325 6.0 13.0 0.00 0.00 0.00 44 1016.3
20260503195427 61 323 5.0 13.0 0.00 0.00 0.00 45 1016.3
20260503195326 61 302 4.0 13.0 0.00 0.00 0.00 45 1016.3
20260503195244 61 305 4.0 13.0 0.00 0.00 0.00 47 1016.3
20260503195142 61 313 4.0 13.0 0.00 0.00 0.00 47 1016.3
20260503195026 61 316 9.0 13.0 0.00 0.00 0.00 46 1016.3
20260503194943 61 299 9.0 13.0 0.00 0.00 0.00 48 1016.3
20260503194842 61 316 10.0 13.0 0.00 0.00 0.00 47 1016.3
20260503194741 61 308 7.0 12.0 0.00 0.00 0.00 46 1016.3
20260503194710 61 250 6.0 12.0 0.00 0.00 0.00 45 1016.3
20260503194528 61 308 4.0 11.0 0.00 0.00 0.00 45 1016.3
20260503194425 61 251 2.0 16.0 0.00 0.00 0.00 45 1016.3
20260503194325 61 251 4.0 16.0 0.00 0.00 0.00 46 1016.6
20260503194228 61 305 6.0 16.0 0.00 0.00 0.00 45 1016.6
20260503194126 61 330 1.0 16.0 0.00 0.00 0.00 43 1016.6
20260503194024 61 316 0.0 16.0 0.00 0.00 0.00 43 1016.6
20260503193942 61 308 1.0 16.0 0.00 0.00 0.00 42 1016.6
20260503193841 62 299 4.0 16.0 0.00 0.00 0.00 45 1016.6
20260503193759 62 335 8.0 17.0 0.00 0.00 0.00 45 1016.6
20260503193635 62 312 9.0 17.0 0.00 0.00 0.00 47 1016.6
20260503193532 62 323 7.0 17.0 0.00 0.00 0.00 46 1016.6
20260503193435 62 295 6.0 17.0 0.00 0.00 0.00 45 1016.6
20260503193335 62 319 9.0 17.0 0.00 0.00 0.00 44 1016.6
20260503193244 62 323 1.0 17.0 0.00 0.00 0.00 43 1016.6
20260503193154 62 332 1.0 17.0 0.00 0.00 0.00 44 1016.6
20260503193030 62 332 3.0 17.0 0.00 0.00 0.00 46 1016.6
20260503192927 62 277 8.0 17.0 0.00 0.00 0.00 46 1016.6
20260503192846 61 302 10.0 17.0 0.00 0.00 0.00 45 1016.8
20260503192743 61 280 5.0 14.0 0.00 0.00 0.00 44 1016.8
20260503192646 61 226 5.0 14.0 0.00 0.00 0.00 46 1016.8
20260503192543 61 304 5.0 14.0 0.00 0.00 0.00 47 1016.8
20260503192441 61 326 5.0 14.0 0.00 0.00 0.00 47 1016.8
20260503192340 61 326 4.0 14.0 0.00 0.00 0.00 46 1016.8
20260503192258 61 330 5.0 14.0 0.00 0.00 0.00 45 1016.8
20260503192136 61 289 6.0 14.0 0.00 0.00 0.00 44 1016.8
20260503192035 61 277 7.0 14.0 0.00 0.00 0.00 47 1016.8
20260503191955 61 311 8.0 14.0 0.00 0.00 0.00 47 1016.8
20260503191836 61 301 7.0 16.0 0.00 0.00 0.00 45 1016.8
20260503191755 61 330 4.0 16.0 0.00 0.00 0.00 44 1016.8
20260503191725 61 311 4.0 16.0 0.00 0.00 0.00 44 1016.8
20260503191541 62 323 1.0 16.0 0.00 0.00 0.00 43 1016.8
20260503191440 62 313 2.0 16.0 0.00 0.00 0.00 44 1016.8
20260503191337 62 288 2.0 16.0 0.00 0.00 0.00 45 1016.9
20260503191236 62 330 4.0 16.0 0.00 0.00 0.00 44 1016.9
20260503191135 62 316 6.0 16.0 0.00 0.00 0.00 46 1016.9
20260503191038 62 322 8.0 16.0 0.00 0.00 0.00 46 1016.9
20260503190941 62 326 8.0 16.0 0.00 0.00 0.00 43 1016.9
20260503190838 62 308 4.0 11.0 0.00 0.00 0.00 41 1016.9
20260503190737 62 329 1.0 8.0 0.00 0.00 0.00 41 1016.9
20260503190635 62 323 2.0 9.0 0.00 0.00 0.00 42 1016.9
20260503190553 62 329 4.0 9.0 0.00 0.00 0.00 46 1016.9
20260503190430 62 285 4.0 9.0 0.00 0.00 0.00 42 1016.9
20260503190352 63 320 1.0 9.0 0.00 0.00 0.00 41 1016.9
20260503190240 63 326 6.0 9.0 0.00 0.00 0.00 45 1016.9
20260503190149 63 316 5.0 12.0 0.00 0.00 0.00 41 1016.9
20260503190046 63 342 3.0 12.0 0.00 0.00 0.00 42 1016.9
20260503185924 63 287 0.0 12.0 0.00 0.00 0.00 44 1016.9
20260503185843 63 322 2.0 12.0 0.00 0.00 0.00 44 1017.1
20260503185741 63 275 5.0 12.0 0.00 0.00 0.00 44 1017.1
20260503185702 63 325 3.0 12.0 0.00 0.00 0.00 43 1017.1
20260503185539 63 313 2.0 12.0 0.00 0.00 0.00 45 1017.1
20260503185441 63 268 5.0 12.0 0.00 0.00 0.00 45 1017.1
20260503185401 62 296 9.0 12.0 0.00 0.00 0.00 47 1017.1
20260503185238 62 272 8.0 12.0 0.00 0.00 0.00 46 1017.1
20260503185137 62 254 4.0 12.0 0.00 0.00 0.00 46 1017.1
20260503185034 62 282 2.0 12.0 0.00 0.00 0.00 45 1017.1
20260503184953 62 275 3.0 12.0 0.00 0.00 0.00 45 1017.1
20260503184850 62 330 3.0 12.0 0.00 0.00 0.00 46 1017.1
20260503184811 62 328 3.0 12.0 0.00 0.00 0.00 44 1017.1
20260503184719 62 270 5.0 12.0 0.00 0.00 0.00 46 1017.1
20260503184604 62 299 4.0 12.0 0.00 0.00 0.00 43 1017.1
20260503184441 62 294 4.0 12.0 0.00 0.00 0.00 43 1017.1
20260503184339 62 306 4.0 12.0 0.00 0.00 0.00 45 1017.2
20260503184237 62 272 5.0 12.0 0.00 0.00 0.00 45 1017.2
20260503184135 62 315 5.0 13.0 0.00 0.00 0.00 42 1017.2
20260503184035 62 292 2.0 13.0 0.00 0.00 0.00 40 1017.2
20260503183933 62 311 4.0 13.0 0.00 0.00 0.00 40 1017.2
20260503183835 62 277 3.0 13.0 0.00 0.00 0.00 44 1017.2
20260503183733 62 274 6.0 13.0 0.00 0.00 0.00 44 1017.2
20260503183631 62 299 4.0 13.0 0.00 0.00 0.00 45 1017.2
20260503183530 62 271 2.0 13.0 0.00 0.00 0.00 44 1017.2
20260503183428 62 282 2.0 13.0 0.00 0.00 0.00 45 1017.2
20260503183329 62 282 4.0 13.0 0.00 0.00 0.00 45 1017.2
20260503183232 62 263 8.0 13.0 0.00 0.00 0.00 46 1017.2
20260503183203 62 272 8.0 13.0 0.00 0.00 0.00 45 1017.2
20260503183040 62 271 6.0 10.0 0.00 0.00 0.00 46 1017.2
20260503182937 61 316 4.0 8.0 0.00 0.00 0.00 47 1017.2
20260503182856 61 318 4.0 8.0 0.00 0.00 0.00 44 1017.4
20260503182755 61 322 2.0 8.0 0.00 0.00 0.00 43 1017.4
20260503182635 61 315 4.0 8.0 0.00 0.00 0.00 43 1017.4
20260503182533 61 322 3.0 8.0 0.00 0.00 0.00 41 1017.4
20260503182453 61 319 1.0 8.0 0.00 0.00 0.00 42 1017.4
20260503182334 61 325 1.0 10.0 0.00 0.00 0.00 42 1017.4
20260503182233 61 322 0.0 10.0 0.00 0.00 0.00 43 1017.4
20260503182131 61 298 0.0 10.0 0.00 0.00 0.00 44 1017.4
20260503182030 61 304 3.0 10.0 0.00 0.00 0.00 43 1017.4
20260503181928 61 322 6.0 10.0 0.00 0.00 0.00 42 1017.4
20260503181825 62 319 2.0 10.0 0.00 0.00 0.00 40 1017.4
20260503181740 62 312 1.0 10.0 0.00 0.00 0.00 40 1017.4
20260503181648 62 312 5.0 11.0 0.00 0.00 0.00 43 1017.4
20260503181545 62 272 5.0 11.0 0.00 0.00 0.00 44 1017.4
20260503181443 62 301 4.0 11.0 0.00 0.00 0.00 42 1017.4
20260503181341 62 325 4.0 11.0 0.00 0.00 0.00 40 1017.3
20260503181241 62 323 4.0 11.0 0.00 0.00 0.00 38 1017.3
20260503181139 62 309 3.0 11.0 0.00 0.00 0.00 44 1017.3
20260503181038 62 272 6.0 11.0 0.00 0.00 0.00 44 1017.3
20260503180957 62 281 6.0 11.0 0.00 0.00 0.00 42 1017.3
20260503180859 62 289 6.0 11.0 0.00 0.00 0.00 44 1017.3
20260503180737 62 328 4.0 11.0 0.00 0.00 0.00 42 1017.3
20260503180635 62 308 1.0 10.0 0.00 0.00 0.00 41 1017.3
20260503180534 62 330 1.0 10.0 0.00 0.00 0.00 43 1017.3
20260503180431 61 291 2.0 11.0 0.00 0.00 0.00 43 1017.3
20260503180330 61 292 3.0 11.0 0.00 0.00 0.00 43 1017.3
20260503180240 61 316 5.0 11.0 0.00 0.00 0.00 46 1017.3
20260503180153 61 277 6.0 11.0 0.00 0.00 0.00 45 1017.3
20260503180028 61 305 4.0 11.0 0.00 0.00 0.00 46 1017.3
20260503175927 61 330 4.0 11.0 0.00 0.00 0.00 44 1017.3
20260503175847 61 308 6.0 11.0 0.00 0.00 0.00 47 1017.6
20260503175724 61 311 3.0 11.0 0.00 0.00 0.00 47 1017.6
20260503175642 61 315 4.0 11.0 0.00 0.00 0.00 47 1017.6
20260503175540 61 328 5.0 11.0 0.00 0.00 0.00 44 1017.6
20260503175438 61 330 5.0 10.0 0.00 0.00 0.00 44 1017.6